Flight Track Log - Related Links

Times and Time Zones

All times are in EDT time to prevent confusion due to time zone crossing. See the UAL6858 flight status page for this flight to view local times or setup timezone preferences in your user account.

Time Position Orientation Groundspeed Altitude Reporting Facility
EDT Latitude Longitude Course Direction KTS MPH feet Rate Location/Type
Mon 09:17:25 PM 40.6750 -74.1776 205° Southwest 177 204 1,500  Level FlightAware ADS-B
Mon 09:17:30 PM 40.6707 -74.1781 185° South 184 212 1,700 2,667 Climbing FlightAware ADS-B
Mon 09:17:43 PM 40.6591 -74.1780 180° South 205 236 2,300 2,824 Climbing FlightAware ADS-B
Mon 09:17:47 PM 40.6550 -74.1784 184° South 209 241 2,500 2,667 Climbing FlightAware ADS-B
Mon 09:17:52 PM 40.6505 -74.1794 190° South 213 245 2,700 3,000 Climbing FlightAware ADS-B
Mon 09:17:57 PM 40.6452 -74.1818 199° South 219 252 3,000 3,273 Climbing FlightAware ADS-B
Mon 09:18:03 PM 40.6403 -74.1847 204° Southwest 225 259 3,300 3,333 Climbing FlightAware ADS-B
Mon 09:18:06 PM 40.6370 -74.1874 212° Southwest 228 262 3,500 3,429 Climbing FlightAware ADS-B
Mon 09:18:10 PM 40.6343 -74.1904 220° Southwest 232 267 3,700 3,429 Climbing FlightAware ADS-B
Mon 09:18:13 PM 40.6320 -74.1937 227° Southwest 234 269 3,900 4,000 Climbing FlightAware ADS-B
Mon 09:18:16 PM 40.6301 -74.1972 234° Southwest 235 270 4,100 3,600 Climbing FlightAware ADS-B
Mon 09:18:23 PM 40.6267 -74.2060 243° Southwest 238 274 4,500 3,818 Climbing FlightAware ADS-B
Mon 09:18:27 PM 40.6247 -74.2121 247° West 239 275 4,800 5,000 Climbing FlightAware ADS-B
Mon 09:18:29 PM 40.6241 -74.2141 248° West 240 276 5,000 4,286 Climbing FlightAware ADS-B
Mon 09:18:34 PM 40.6225 -74.2206 252° West 240 276 5,300 4,286 Climbing FlightAware ADS-B
Mon 09:18:36 PM 40.6219 -74.2239 257° West 242 278 5,500 6,000 Climbing FlightAware ADS-B
Mon 09:18:40 PM 40.6210 -74.2304 260° West 242 278 5,900 4,800 Climbing FlightAware ADS-B
Mon 09:18:46 PM 40.6202 -74.2384 262° West 244 281 6,300 4,364 Climbing FlightAware ADS-B
Mon 09:18:51 PM 40.6197 -74.2462 265° West 248 285 6,700 5,143 Climbing FlightAware ADS-B
Mon 09:18:53 PM 40.6195 -74.2490 265° West 248 285 6,900 4,800 Climbing FlightAware ADS-B
Mon 09:19:06 PM 40.6183 -74.2689 265° West 251 289 7,900 4,500 Climbing FlightAware ADS-B
Mon 09:19:09 PM 40.6180 -74.2727 264° West 252 290 8,100 4,800 Climbing FlightAware ADS-B
Mon 09:19:21 PM 40.6166 -74.2925 265° West 255 293 9,100 4,500 Climbing FlightAware ADS-B
Mon 09:19:25 PM 40.6163 -74.2974 265° West 257 296 9,300 4,667 Climbing FlightAware ADS-B
Mon 09:19:30 PM 40.6157 -74.3050 264° West 249 287 9,800 4,714 Climbing FlightAware ADS-B
Mon 09:19:53 PM 40.6128 -74.3410 264° West 263 303 11,500 3,736 Climbing FlightAware ADS-B
Mon 09:20:23 PM 40.6094 -74.3912 265° West 296 341 13,100 2,700 Climbing FlightAware ADS-B
Mon 09:20:53 PM 40.6051 -74.4493 264° West 340 391 14,200 1,964 Climbing FlightAware ADS-B
Mon 09:21:18 PM 40.6008 -74.5033 264° West 378 435 14,900 1,800 Climbing FlightAware ADS-B
Mon 09:21:23 PM 40.5991 -74.5156 260° West 384 442 15,100 1,385 Climbing FlightAware ADS-B
Mon 09:21:31 PM 40.5955 -74.5334 255° West 399 459 15,200 1,286 Climbing FlightAware ADS-B
Mon 09:21:37 PM 40.5915 -74.5482 250° West 405 466 15,400 2,842 Climbing FlightAware ADS-B
Mon 09:22:09 PM 40.5634 -74.6197 243° Southwest 421 484 17,000 3,188 Climbing FlightAware ADS-B
Mon 09:22:41 PM 40.5342 -74.6915 242° Southwest 424 488 18,800 3,097 Climbing FlightAware ADS-B
Mon 09:23:11 PM 40.5059 -74.7612 242° Southwest 434 499 20,200 2,361 Climbing FlightAware ADS-B
Mon 09:23:42 PM 40.4768 -74.8327 242° Southwest 449 517 21,200 2,066 Climbing FlightAware ADS-B
Mon 09:24:12 PM 40.4469 -74.9061 242° Southwest 457 526 22,300 2,053 Climbing FlightAware ADS-B
Mon 09:24:20 PM 40.4385 -74.9262 241° Southwest 462 532 22,500 2,308 Climbing FlightAware ADS-B
Mon 09:24:38 PM 40.4175 -74.9693 237° Southwest 464 534 23,300 2,323 Climbing FlightAware ADS-B
Mon 09:24:51 PM 40.4011 -74.9974 233° Southwest 469 540 23,700 1,953 Climbing FlightAware ADS-B
Mon 09:25:21 PM 40.3566 -75.0610 227° Southwest 478 550 24,700 2,000 Climbing FlightAware ADS-B
Mon 09:25:51 PM 40.3109 -75.1249 227° Southwest 482 555 25,700 1,900 Climbing FlightAware ADS-B
Mon 09:26:21 PM 40.2649 -75.1893 227° Southwest 483 556 26,600 2,066 Climbing FlightAware ADS-B
Mon 09:26:52 PM 40.2182 -75.2545 227° Southwest 480 552 27,800 2,361 Climbing FlightAware ADS-B
Mon 09:27:22 PM 40.1724 -75.3182 227° Southwest 475 547 29,000 2,200 Climbing FlightAware ADS-B
Mon 09:27:52 PM 40.1277 -75.3805 227° Southwest 471 542 30,000 984 Climbing FlightAware ADS-B
Mon 09:28:23 PM 40.0825 -75.4433 227° Southwest 468 539 30,000  Level FlightAware ADS-B
Mon 09:28:53 PM 40.0378 -75.5055 227° Southwest 466 536 30,000  Level FlightAware ADS-B
Mon 09:29:24 PM 39.9921 -75.5686 227° Southwest 467 537 30,000  Level FlightAware ADS-B
Mon 09:29:54 PM 39.9472 -75.6306 227° Southwest 470 541 30,000  Level FlightAware ADS-B
Mon 09:30:13 PM 39.9186 -75.6704 227° Southwest 472 543 30,000  Level FlightAware ADS-B
Mon 09:30:47 PM 39.8719 -75.7444 231° Southwest 472 543 30,000  Level FlightAware ADS-B
Mon 09:31:20 PM 39.8266 -75.8169 231° Southwest 471 542 30,000  Level FlightAware ADS-B
Mon 09:31:50 PM 39.7845 -75.8840 231° Southwest 473 544 30,000  Level FlightAware ADS-B
Mon 09:32:21 PM 39.7421 -75.9517 231° Southwest 473 544 30,000  Level FlightAware ADS-B
Mon 09:32:58 PM 39.6910 -76.0328 231° Southwest 471 542 30,000  Level FlightAware ADS-B
Mon 09:33:29 PM 39.6485 -76.1000 231° Southwest 467 537 30,000  Level FlightAware ADS-B
Mon 09:34:10 PM 39.5924 -76.1884 231° Southwest 466 536 30,000  Level FlightAware ADS-B
Mon 09:34:40 PM 39.5504 -76.2534 230° Southwest 470 541 30,000  Level FlightAware ADS-B
Mon 09:35:12 PM 39.5067 -76.3203 230° Southwest 470 541 30,000  Level FlightAware ADS-B
Mon 09:35:42 PM 39.4644 -76.3849 230° Southwest 469 540 30,000  Level FlightAware ADS-B
Mon 09:36:13 PM 39.4216 -76.4517 230° Southwest 468 539 30,000  Level FlightAware ADS-B
Mon 09:36:44 PM 39.3796 -76.5182 231° Southwest 468 539 30,000  Level FlightAware ADS-B
Mon 09:37:15 PM 39.3372 -76.5853 231° Southwest 469 540 30,000  Level FlightAware ADS-B
Mon 09:37:47 PM 39.2927 -76.6553 231° Southwest 471 542 30,000  Level FlightAware ADS-B
Mon 09:38:18 PM 39.2492 -76.7233 230° Southwest 472 543 30,000  Level FlightAware ADS-B
Mon 09:38:50 PM 39.2045 -76.7929 230° Southwest 476 548 30,000  Level FlightAware ADS-B
Mon 09:39:20 PM 39.1622 -76.8588 230° Southwest 479 551 30,000  Level FlightAware ADS-B
Mon 09:39:55 PM 39.1137 -76.9341 230° Southwest 479 551 30,000  Level FlightAware ADS-B
Mon 09:40:27 PM 39.0678 -77.0049 230° Southwest 481 554 30,000  Level FlightAware ADS-B
Mon 09:40:40 PM 39.0481 -77.0322 227° Southwest 484 557 30,000  Level FlightAware ADS-B
Mon 09:41:11 PM 38.9967 -77.0906 221° Southwest 488 562 30,000  Level FlightAware ADS-B
Mon 09:41:42 PM 38.9422 -77.1507 221° Southwest 489 563 30,000  Level FlightAware ADS-B
Mon 09:42:18 PM 38.8808 -77.2180 220° Southwest 490 564 30,000  Level FlightAware ADS-B
Mon 09:42:52 PM 38.8223 -77.2822 221° Southwest 491 565 30,000  Level FlightAware ADS-B
Mon 09:43:37 PM 38.7450 -77.3670 221° Southwest 490 564 30,000  Level FlightAware ADS-B
Mon 09:44:17 PM 38.6760 -77.4420 220° Southwest 490 564 30,000  Level FlightAware ADS-B
Mon 09:45:02 PM 38.5990 -77.5250 220° Southwest 493 567 30,000  Level FlightAware ADS-B
Mon 09:45:16 PM 38.5737 -77.5524 220° Southwest 494 568 30,000  Level FlightAware ADS-B
Mon 09:45:47 PM 38.5196 -77.6108 220° Southwest 494 568 30,000  Level FlightAware ADS-B
Mon 09:46:18 PM 38.4660 -77.6687 220° Southwest 493 567 30,000  Level FlightAware ADS-B
Mon 09:47:06 PM 38.3850 -77.7570 221° Southwest 493 567 30,000  Level FlightAware ADS-B
Mon 09:47:16 PM 38.3649 -77.7778 219° Southwest 493 567 30,000  Level FlightAware ADS-B
Mon 09:47:48 PM 38.3095 -77.8373 220° Southwest 495 570 30,000  Level FlightAware ADS-B
Mon 09:48:18 PM 38.2567 -77.8938 220° Southwest 495 570 30,000  Level FlightAware ADS-B
Mon 09:49:11 PM 38.1630 -77.9940 220° Southwest 492 566 30,000  Level FlightAware ADS-B
Mon 09:49:55 PM 38.0880 -78.0740 220° Southwest 491 565 30,000  Level FlightAware ADS-B
Mon 09:50:36 PM 38.0190 -78.1490 221° Southwest 490 564 30,000  Level FlightAware ADS-B
Mon 09:51:19 PM 37.9520 -78.2430 228° Southwest 486 559 30,000  Level FlightAware ADS-B
Mon 09:51:59 PM 37.8920 -78.3300 229° Southwest 487 560 30,000  Level FlightAware ADS-B
Mon 09:52:43 PM 37.8280 -78.4210 228° Southwest 486 559 30,000  Level FlightAware ADS-B
Mon 09:53:25 PM 37.7650 -78.5120 229° Southwest 486 559 30,000 -385 Level FlightAware ADS-B
Mon 09:54:01 PM 37.7130 -78.5860 228° Southwest 464 534 29,500 -2,819 Descending FlightAware ADS-B
Mon 09:54:48 PM 37.6470 -78.6810 229° Southwest 466 536 26,100 -3,793 Descending FlightAware ADS-B
Mon 09:55:28 PM 37.5890 -78.7630 228° Southwest 449 517 24,000 -2,927 Descending FlightAware ADS-B
Mon 09:56:10 PM 37.5340 -78.8420 229° Southwest 433 498 22,100 -1,395 Descending FlightAware ADS-B
Mon 09:56:54 PM 37.4760 -78.9250 229° Southwest 427 491 22,000 -71 Descending FlightAware ADS-B
Mon 09:57:34 PM 37.4310 -78.9870 228° Southwest 427 491 22,000  Level FlightAware ADS-B
Mon 09:58:17 PM 37.3720 -79.0710 229° Southwest 22,000  Level FlightAware ADS-B
Mon 09:59:10 PM 37.3070 -79.1650 229° Southwest 422 486 22,000  Level FlightAware ADS-B
Mon 09:59:49 PM 37.2470 -79.2480 228° Southwest 436 502 22,000  Level FlightAware ADS-B
Mon 10:00:41 PM 37.1860 -79.3300 227° Southwest 436 502 22,000  Level FlightAware ADS-B
Mon 10:01:20 PM 37.1400 -79.3910 227° Southwest 436 502 22,000  Level FlightAware ADS-B
Mon 10:01:57 PM 37.0970 -79.4490 227° Southwest 436 502 22,000  Level FlightAware ADS-B
Mon 10:02:43 PM 37.0430 -79.5210 227° Southwest 436 502 22,000  Level FlightAware ADS-B
Mon 10:03:20 PM 37.0000 -79.5790 227° Southwest 436 502 22,000  Level FlightAware ADS-B
Mon 10:09:00 PM 36.5242 -80.0000 180° South  Level FlightAware Approximate
Mon 10:10:00 PM 36.4101 -79.9989 172° South  Level FlightAware Approximate
Mon 10:11:00 PM 36.2968 -79.9833 180° South  Level FlightAware Approximate
Mon 10:12:00 PM 36.1827 -79.9816 175° South  Level FlightAware Approximate
Mon 10:13:00 PM 36.0689 -79.9702 175° South  Level FlightAware Approximate
Mon 10:14:00 PM 36.0667 -80.0520 270° West  Level FlightAware Approximate
Mon 10:15:00 PM 36.1095 -80.1808 310° West  Level FlightAware Approximate
Mon 10:16:00 PM 36.1333 -80.2167 310° West  Level FlightAware Approximate
Mon 10:17:00 PM 36.1337 -80.2220 310° West  Level Estimated
Mon 10:18:00 PM 36.1333 -80.2167 310° West  Level FlightAware Approximate
Mon 10:19:00 PM 36.1337 -80.2220 310° West  Level Estimated
Mon 10:20:00 PM 36.1333 -80.2167 310° West  Level FlightAware Approximate
Mon 10:21:00 PM 36.1337 -80.2220 310° West  Level Estimated
Mon 10:22:00 PM 36.1333 -80.2167 310° West  Level FlightAware Approximate

Login

Don't have an account? Register now (free) for customized features, flight alerts, and more!